Terminal Aerodrome Forecast
Issued by NWS

Home | Current Version | Previous Version | Text Only | Print | Product List | Glossary On
Versions: 1 2 3 4 5 6 7 8 9 10 11 12 13 14
706
FTUS42 KMLB 282347
TAFTIX
TAF
KTIX 282347Z 2900/2924 14010KT P6SM FEW045
     FM290600 20003KT P6SM SKC
     FM291400 23005KT P6SM SCT030
     FM291800 10012KT P6SM FEW045
      AMD NOT SKED 2901/2911=

USA.gov is the U.S. government's official web portal to all federal, state and local government web resources and services.